Awendaw, SC (29429)

2:26 PM EDT on April 25, 2017 (GMT -0400)
Awendaw | | Change Station

Elev 0 ft 32.89 °N, 79.75 °W | Updated 8 minutes ago

Overcast
Overcast
70.3 °F
Feels Like 72 °F
N
0.6
Wind Variable Wind from North
Gusts 3.7 mph

Today
High -- | Low -- °F
--% Chance of Precip.
Yesterday
High -- | Low -- °F
Precip. -- in
Pressure 29.70 in
Visibility 10.0 miles
Clouds Mostly Cloudy 2100 ft
Overcast 3400 ft
Heat Index 72 °F
Dew Point 63 °F
Humidity 77%
Rainfall 0.00 in
Snow Depth Not available.
6:36 AM 7:56 PM
Waning Crescent, 1% visible
METAR KGGE 251815Z AUTO 27008G14KT 10SM BKN021 OVC034 20/15 A2970 RMK AO2
Pressure 29.70 in
Visibility 10.0 miles
Clouds Mostly Cloudy 2100 ft
Overcast 3400 ft
Heat Index 72 °F
Dew Point 63 °F
Humidity 77%
Rainfall 0.00 in
Snow Depth Not available.
6:36 AM 7:56 PM
Waning Crescent, 1% visible
METAR KGGE 251815Z AUTO 27008G14KT 10SM BKN021 OVC034 20/15 A2970 RMK AO2

Get Severe Weather Alerts

Thanks for signing up!

Be on the lookout for a verification email in your inbox.

You'll start receiving the daily forecast at 8 AM.

×

10-Day Weather Forecast

Almanac

Astronomy

Apr. 25, 2017 Rise Set
Actual Time
Civil Twilight
Nautical Twilight
Astronomical Twilight
Moon
Length of Visible Light
Length of Day
Tomorrow will be .
, % of the Moon is Illuminated

Today's Extremes

State Highs State Lows

Community

WunderPhotos

WunderBlog® & News

Nearby

Air Quality

  Air Quality AQ Index Pollutant
Not available.

Snow Depth

Station Depth Elevation

Earthquake Activity

City Distance Mag. Time & Date
Minimum magnitude displayed is 2.5.

Coastal Water Temperatures

Place Temperature

Stations

Nearby Weather Stations

Station Location Temp. Windchill Dew Point Humidity Wind Precip. Elev Updated Type
                   

Watches & Warnings

There are currently no watches in effect.